Time;durP1;ratioP1;P1;durP2;ratioP2;P2;SDS_P1;SDS_P2;PMS_P1;PMS_P2;Temp;Humidity;BMP_temperature;BMP_pressure;BME280_temperature;BME280_humidity;BME280_pressure;Samples;Min_cycle;Max_cycle;Signal;HPM_P1;HPM_P2
2022/03/02 00:00:11;;;;;;;30.10;17.50;;;23.10;44.00;;;;;;219738;1267;25477;-56
2022/03/02 00:05:40;;;;;;;29.30;17.60;;;23.00;44.10;;;;;;219490;1265;25509;-56
2022/03/02 00:10:49;;;;;;;27.50;17.90;;;22.90;44.70;;;;;;219998;1267;25585;-57
2022/03/02 00:15:54;;;;;;;32.20;19.00;;;22.90;44.90;;;;;;220248;1265;22602;-57
2022/03/02 00:20:58;;;;;;;40.30;18.60;;;22.80;45.30;;;;;;219966;1264;22529;-57
2022/03/02 00:26:03;;;;;;;36.00;19.20;;;22.70;47.60;;;;;;220185;1264;22531;-56
2022/03/02 00:31:12;;;;;;;38.30;19.70;;;22.70;48.50;;;;;;220329;1264;22524;-56
2022/03/02 00:36:17;;;;;;;35.50;19.40;;;22.70;48.70;;;;;;220163;1264;23159;-57
2022/03/02 00:41:21;;;;;;;31.00;17.80;;;22.60;48.70;;;;;;220128;1267;22520;-59
2022/03/02 00:46:29;;;;;;;31.60;18.40;;;22.50;48.40;;;;;;220059;1267;23027;-54
2022/03/02 00:51:33;;;;;;;30.10;18.40;;;22.40;48.40;;;;;;220015;1267;25583;-56
2022/03/02 00:56:36;;;;;;;30.10;19.00;;;22.30;48.30;;;;;;220541;1267;22510;-57
2022/03/02 01:01:40;;;;;;;32.80;18.60;;;22.30;48.30;;;;;;220194;1267;25375;-57
2022/03/02 01:06:44;;;;;;;31.90;17.10;;;22.30;48.30;;;;;;220264;1267;24211;-56
2022/03/02 01:11:48;;;;;;;27.40;16.80;;;22.50;48.00;;;;;;220042;1267;22541;-55
2022/03/02 01:16:51;;;;;;;29.80;16.90;;;23.00;47.00;;;;;;220079;1267;25522;-57
2022/03/02 01:21:55;;;;;;;25.10;16.00;;;23.30;46.10;;;;;;220062;1267;22615;-58
2022/03/02 01:27:04;;;;;;;28.60;16.60;;;23.60;45.60;;;;;;220050;1267;26241;-57
2022/03/02 01:32:16;;;;;;;26.20;16.10;;;23.70;45.10;;;;;;220172;1267;25140;-56
2022/03/02 01:37:19;;;;;;;30.50;16.90;;;23.80;44.70;;;;;;220042;1267;26866;-56
2022/03/02 01:42:23;;;;;;;27.70;15.50;;;23.90;44.40;;;;;;220061;1267;23139;-57
2022/03/02 01:47:29;;;;;;;27.20;16.90;;;24.00;44.10;;;;;;220176;1267;23557;-57
2022/03/02 01:52:32;;;;;;;26.30;16.00;;;24.10;43.90;;;;;;220309;1267;25317;-57
2022/03/02 01:57:36;;;;;;;26.00;16.30;;;24.10;43.40;;;;;;220067;1267;22547;-56
2022/03/02 02:02:41;;;;;;;30.00;16.70;;;24.10;43.50;;;;;;220433;1267;22558;-56
2022/03/02 02:07:45;;;;;;;25.20;16.10;;;24.20;43.40;;;;;;220090;1267;23158;-56
2022/03/02 02:12:49;;;;;;;26.80;16.60;;;24.20;43.30;;;;;;220396;1267;25620;-56
2022/03/02 02:17:52;;;;;;;25.90;16.10;;;24.20;43.00;;;;;;220668;1267;22536;-55
2022/03/02 02:22:56;;;;;;;23.60;16.60;;;24.30;42.80;;;;;;220066;1267;22530;-59
2022/03/02 02:28:00;;;;;;;25.40;15.70;;;24.30;42.70;;;;;;220015;1267;23065;-57
2022/03/02 02:33:05;;;;;;;24.80;15.80;;;24.30;42.70;;;;;;220131;1267;25244;-57
2022/03/02 02:38:09;;;;;;;27.30;15.70;;;24.30;42.50;;;;;;220207;1267;22567;-56
2022/03/02 02:43:15;;;;;;;25.60;16.30;;;24.40;42.80;;;;;;220289;1267;24338;-56
2022/03/02 02:48:20;;;;;;;23.80;15.30;;;24.50;42.40;;;;;;220210;1267;22535;-57
2022/03/02 02:53:23;;;;;;;23.70;14.60;;;24.40;42.40;;;;;;220197;1267;22540;-57
2022/03/02 02:58:27;;;;;;;22.30;15.30;;;24.30;42.60;;;;;;220201;1267;25479;-54
2022/03/02 03:03:33;;;;;;;22.90;14.80;;;24.10;43.00;;;;;;220595;1267;24317;-55
2022/03/02 03:08:37;;;;;;;23.90;15.80;;;23.90;42.80;;;;;;220572;1267;22558;-56
2022/03/02 03:13:41;;;;;;;25.20;16.20;;;23.80;43.10;;;;;;220342;1267;24246;-56
2022/03/02 03:18:44;;;;;;;25.20;15.50;;;23.60;43.60;;;;;;220397;1267;24695;-55
2022/03/02 03:23:48;;;;;;;25.20;15.20;;;23.40;43.70;;;;;;220345;1267;22609;-57
2022/03/02 03:28:52;;;;;;;24.00;14.90;;;23.20;44.10;;;;;;220272;1267;22527;-54
2022/03/02 03:33:55;;;;;;;22.30;15.00;;;23.10;44.20;;;;;;220698;1267;25399;-56
2022/03/02 03:38:59;;;;;;;23.80;15.10;;;23.10;44.70;;;;;;220155;1268;22543;-55
2022/03/02 03:44:03;;;;;;;24.50;15.90;;;23.00;44.50;;;;;;219923;1267;22543;-55
2022/03/02 03:49:07;;;;;;;24.20;15.80;;;22.90;44.70;;;;;;220341;1267;22690;-56
2022/03/02 03:54:11;;;;;;;23.70;15.10;;;22.80;44.80;;;;;;220497;1267;22521;-56
2022/03/02 03:59:15;;;;;;;22.80;14.70;;;22.70;44.90;;;;;;220218;1267;26456;-55
2022/03/02 04:04:19;;;;;;;24.50;15.10;;;22.50;45.10;;;;;;220239;1267;22528;-55
2022/03/02 04:09:23;;;;;;;23.80;15.20;;;22.50;45.10;;;;;;220316;1267;23017;-54
2022/03/02 04:14:26;;;;;;;25.90;14.80;;;22.50;45.10;;;;;;220152;1267;24824;-56
2022/03/02 04:19:32;;;;;;;22.00;13.90;;;22.90;44.70;;;;;;220070;1267;22531;-53
2022/03/02 04:24:36;;;;;;;20.80;13.20;;;23.30;43.60;;;;;;220053;1267;22579;-54
2022/03/02 04:29:40;;;;;;;23.50;15.20;;;23.60;43.20;;;;;;220085;1268;22808;-56
2022/03/02 04:34:43;;;;;;;20.60;13.50;;;23.80;42.90;;;;;;220150;1267;22616;-56
2022/03/02 04:39:47;;;;;;;22.10;14.40;;;23.90;42.30;;;;;;219897;1267;25437;-58
2022/03/02 04:44:51;;;;;;;22.00;14.40;;;24.00;43.10;;;;;;220498;1267;24229;-57
2022/03/02 04:49:54;;;;;;;22.30;13.40;;;24.10;42.40;;;;;;220615;1267;22605;-58
2022/03/02 04:55:07;;;;;;;21.80;13.90;;;24.20;42.30;;;;;;220343;1267;25568;-57
2022/03/02 05:00:13;;;;;;;23.00;15.10;;;24.30;41.60;;;;;;220198;1267;22509;-57
2022/03/02 05:05:24;;;;;;;19.60;13.50;;;24.30;41.50;;;;;;220726;1267;22810;-56
2022/03/02 05:10:29;;;;;;;20.10;13.20;;;24.30;41.30;;;;;;220470;1267;25610;-55
2022/03/02 05:15:32;;;;;;;21.30;14.00;;;24.30;41.70;;;;;;220266;1268;22588;-56
2022/03/02 05:20:39;;;;;;;24.20;14.70;;;24.30;41.00;;;;;;220377;1267;22757;-54
2022/03/02 05:25:43;;;;;;;22.00;13.90;;;24.40;40.90;;;;;;220380;1268;22515;-55
2022/03/02 05:30:47;;;;;;;20.80;13.60;;;24.40;40.90;;;;;;220259;1267;24224;-57
2022/03/02 05:35:51;;;;;;;19.80;13.20;;;24.30;40.80;;;;;;220220;1267;22530;-56
2022/03/02 05:40:55;;;;;;;21.70;14.10;;;24.50;40.90;;;;;;219964;1267;23764;-58
2022/03/02 05:45:58;;;;;;;20.90;13.60;;;24.50;41.50;;;;;;220371;1267;22526;-56
2022/03/02 05:51:03;;;;;;;20.70;13.10;;;24.40;40.90;;;;;;220401;1268;24278;-55
2022/03/02 05:56:06;;;;;;;20.70;13.60;;;24.50;41.50;;;;;;220003;1267;23163;-57
2022/03/02 06:01:10;;;;;;;20.70;13.20;;;24.60;40.70;;;;;;220262;1268;22590;-55
2022/03/02 06:06:14;;;;;;;19.40;13.10;;;24.50;41.10;;;;;;219998;1267;25514;-56
2022/03/02 06:11:27;;;;;;;22.10;13.90;;;24.30;41.40;;;;;;220251;1268;26761;-59
2022/03/02 06:16:31;;;;;;;21.40;13.80;;;24.10;41.30;;;;;;220888;1267;25595;-57
2022/03/02 06:21:38;;;;;;;20.10;13.90;;;24.00;41.40;;;;;;220152;1268;22555;-55
2022/03/02 06:26:42;;;;;;;20.80;13.70;;;23.90;42.00;;;;;;220106;1267;22688;-56
2022/03/02 06:31:46;;;;;;;20.50;13.50;;;23.60;42.10;;;;;;220566;1267;26575;-56
2022/03/02 06:36:51;;;;;;;22.00;14.10;;;23.50;42.50;;;;;;220050;1267;22555;-58
2022/03/02 06:42:18;;;;;;;19.90;14.10;;;23.30;42.70;;;;;;220282;1268;22523;-54
2022/03/02 06:47:36;;;;;;;19.80;13.60;;;23.20;42.80;;;;;;219944;1271;28795;-55
2022/03/02 06:52:45;;;;;;;22.70;14.40;;;23.10;43.00;;;;;;220454;1269;22767;-56
2022/03/02 06:57:53;;;;;;;20.30;13.60;;;23.00;43.20;;;;;;220299;1267;22741;-55
2022/03/02 07:03:02;;;;;;;20.20;13.30;;;23.00;43.40;;;;;;219918;1268;22544;-56
2022/03/02 07:08:08;;;;;;;22.50;14.40;;;22.90;43.50;;;;;;220095;1268;25704;-56
2022/03/02 07:13:13;;;;;;;22.50;13.40;;;22.80;43.60;;;;;;220400;1268;22526;-57
2022/03/02 07:18:16;;;;;;;20.70;13.40;;;22.80;44.30;;;;;;220417;1268;22561;-57
2022/03/02 07:23:22;;;;;;;19.60;13.20;;;22.80;44.30;;;;;;220032;1267;24308;-57
2022/03/02 07:28:27;;;;;;;24.00;13.30;;;22.70;45.00;;;;;;220479;1265;25413;-58
2022/03/02 07:34:02;;;;;;;23.60;12.40;;;22.60;45.20;;;;;;220121;1268;25374;-62
2022/03/02 07:39:11;;;;;;;26.50;12.50;;;22.50;46.30;;;;;;220683;1267;24437;-56
2022/03/02 07:44:16;;;;;;;25.60;12.50;;;22.50;45.90;;;;;;220630;1269;24306;-57
2022/03/02 07:49:20;;;;;;;25.10;12.90;;;22.40;46.10;;;;;;221116;1270;22573;-57
2022/03/02 07:54:28;;;;;;;25.60;13.50;;;22.30;46.50;;;;;;220495;1270;22662;-55
2022/03/02 07:59:38;;;;;;;27.60;12.10;;;22.30;46.50;;;;;;220835;1269;22525;-57
2022/03/02 08:04:42;;;;;;;22.10;12.10;;;22.20;46.80;;;;;;220552;1268;25346;-56
2022/03/02 08:09:45;;;;;;;23.90;13.00;;;22.20;46.30;;;;;;220075;1267;26549;-54
2022/03/02 08:14:50;;;;;;;29.60;13.00;;;22.30;46.80;;;;;;220370;1268;25552;-55
2022/03/02 08:19:53;;;;;;;26.50;13.40;;;22.20;46.70;;;;;;220662;1269;22542;-55
2022/03/02 08:25:15;;;;;;;24.50;13.50;;;22.20;45.60;;;;;;220208;1269;23030;-56
2022/03/02 08:30:19;;;;;;;20.90;12.90;;;22.40;44.90;;;;;;220125;1268;24380;-56
2022/03/02 08:35:23;;;;;;;21.30;12.60;;;22.80;44.30;;;;;;220050;1268;22538;-56
2022/03/02 08:40:26;;;;;;;21.70;12.90;;;22.90;44.30;;;;;;220089;1268;22726;-53
2022/03/02 08:45:31;;;;;;;19.80;12.50;;;23.00;43.60;;;;;;220264;1268;25499;-57
2022/03/02 08:50:35;;;;;;;20.50;12.80;;;22.90;43.90;;;;;;220034;1267;23133;-55
2022/03/02 08:55:40;;;;;;;22.00;12.00;;;22.90;43.70;;;;;;220404;1268;23934;-55
2022/03/02 09:00:44;;;;;;;23.20;12.60;;;22.80;43.70;;;;;;220468;1268;23184;-55
2022/03/02 09:05:49;;;;;;;19.00;11.60;;;22.70;43.70;;;;;;220186;1267;22570;-53
2022/03/02 09:10:53;;;;;;;19.20;11.80;;;22.80;44.00;;;;;;220468;1268;26503;-54
2022/03/02 09:15:57;;;;;;;20.00;11.40;;;22.80;43.50;;;;;;219889;1267;25323;-56
2022/03/02 09:21:04;;;;;;;23.50;11.70;;;22.80;43.40;;;;;;219967;1267;23024;-55
2022/03/02 09:26:11;;;;;;;17.30;11.30;;;22.80;43.50;;;;;;220151;1268;22513;-56
2022/03/02 09:31:19;;;;;;;17.30;11.00;;;22.70;43.40;;;;;;219826;1268;442064;-55
2022/03/02 09:36:26;;;;;;;18.50;11.10;;;22.70;43.50;;;;;;220579;1268;23052;-52
2022/03/02 09:41:41;;;;;;;19.20;11.10;;;22.70;43.50;;;;;;220111;1266;24339;-57
2022/03/02 09:46:51;;;;;;;15.40;10.70;;;22.70;43.30;;;;;;219662;1268;24320;-56
2022/03/02 09:52:18;;;;;;;16.80;11.00;;;22.70;43.30;;;;;;220273;1269;22621;-55
2022/03/02 09:57:23;;;;;;;18.30;10.60;;;22.70;43.20;;;;;;220199;1267;25303;-56
2022/03/02 10:02:38;;;;;;;16.40;11.00;;;22.60;43.10;;;;;;220293;1268;22581;-55
2022/03/02 10:07:53;;;;;;;18.80;11.80;;;22.80;43.20;;;;;;219779;1268;22525;-56
2022/03/02 10:13:01;;;;;;;17.00;10.10;;;22.80;43.40;;;;;;220084;1268;23068;-56
2022/03/02 10:18:07;;;;;;;18.50;11.70;;;22.90;42.70;;;;;;219885;1268;22591;-56
2022/03/02 10:23:31;;;;;;;16.60;10.10;;;22.80;42.70;;;;;;219927;1267;23250;-56
2022/03/02 10:28:40;;;;;;;14.10;9.70;;;23.10;42.30;;;;;;219858;1267;25566;-55
2022/03/02 10:33:52;;;;;;;14.80;9.90;;;23.10;42.10;;;;;;220336;1268;22619;-56
2022/03/02 10:38:59;;;;;;;15.60;10.20;;;23.10;42.20;;;;;;220168;1268;22556;-58
2022/03/02 10:44:05;;;;;;;16.60;9.60;;;23.30;41.70;;;;;;220350;1268;22662;-54
2022/03/02 10:49:18;;;;;;;14.00;10.00;;;23.50;41.30;;;;;;220085;1267;25494;-56
2022/03/02 10:54:23;;;;;;;12.70;8.90;;;23.70;41.10;;;;;;219825;1268;23081;-55
2022/03/02 10:59:31;;;;;;;16.10;10.10;;;23.90;41.00;;;;;;220979;1267;22808;-56
2022/03/02 11:04:38;;;;;;;13.90;9.60;;;24.10;40.80;;;;;;220078;1267;22564;-55
2022/03/02 11:09:51;;;;;;;15.00;9.60;;;24.20;40.80;;;;;;220460;1267;22579;-56
2022/03/02 11:14:56;;;;;;;14.30;9.20;;;24.30;40.90;;;;;;220121;1267;24224;-55
2022/03/02 11:20:09;;;;;;;14.20;9.20;;;24.30;40.40;;;;;;220254;1267;22858;-53
2022/03/02 11:25:12;;;;;;;13.90;8.50;;;24.40;40.60;;;;;;220970;1267;25367;-55
2022/03/02 11:30:18;;;;;;;12.30;8.60;;;24.50;40.20;;;;;;220405;1267;26598;-56
2022/03/02 11:35:23;;;;;;;12.50;8.60;;;24.50;40.10;;;;;;220434;1267;22543;-54
2022/03/02 11:40:57;;;;;;;16.60;9.00;;;24.60;40.00;;;;;;220297;1267;22526;-56
2022/03/02 11:46:06;;;;;;;13.80;8.80;;;24.60;40.00;;;;;;220165;1267;24421;-56
2022/03/02 11:51:23;;;;;;;15.40;10.10;;;24.60;40.10;;;;;;220381;1267;22535;-56
2022/03/02 11:56:29;;;;;;;16.60;11.20;;;24.50;39.60;;;;;;220415;1267;22531;-56
2022/03/02 12:01:41;;;;;;;15.10;10.30;;;24.50;39.40;;;;;;220501;1267;22564;-55
2022/03/02 12:07:08;;;;;;;14.30;10.30;;;24.50;39.70;;;;;;220526;1267;24365;-54
2022/03/02 12:12:18;;;;;;;14.60;10.30;;;24.40;39.80;;;;;;220568;1267;22527;-57
2022/03/02 12:17:33;;;;;;;15.00;10.10;;;24.40;39.90;;;;;;220398;1267;24262;-52
2022/03/02 12:22:40;;;;;;;16.40;9.70;;;24.30;40.00;;;;;;220592;1267;22594;-57
2022/03/02 12:28:00;;;;;;;14.70;10.50;;;24.30;40.10;;;;;;220497;1267;24250;-55
2022/03/02 12:33:07;;;;;;;13.80;9.20;;;24.30;40.30;;;;;;220093;1267;22608;-53
2022/03/02 12:38:12;;;;;;;14.80;9.50;;;24.20;40.30;;;;;;220155;1267;22528;-57
2022/03/02 12:43:17;;;;;;;14.00;9.60;;;24.20;40.50;;;;;;220262;1268;24270;-55
2022/03/02 12:48:27;;;;;;;13.00;9.00;;;24.20;40.60;;;;;;220758;1267;22550;-54
2022/03/02 12:53:51;;;;;;;12.90;8.60;;;24.10;40.40;;;;;;220177;1267;25455;-57
2022/03/02 12:58:55;;;;;;;14.80;8.90;;;24.10;40.30;;;;;;220509;1266;22579;-55
2022/03/02 13:04:02;;;;;;;15.10;9.80;;;24.00;40.30;;;;;;220617;1267;22525;-53
2022/03/02 13:09:38;;;;;;;11.40;8.30;;;24.00;40.20;;;;;;220284;1268;22544;-56
2022/03/02 13:14:42;;;;;;;13.10;9.10;;;24.00;40.10;;;;;;220654;1268;25568;-56
2022/03/02 13:19:51;;;;;;;12.30;8.30;;;24.00;39.90;;;;;;220473;1267;22553;-56
2022/03/02 13:25:09;;;;;;;12.50;8.60;;;24.00;40.10;;;;;;220190;1267;22672;-54
2022/03/02 13:30:15;;;;;;;13.70;9.20;;;23.90;40.30;;;;;;220713;1267;24383;-52
2022/03/02 13:35:23;;;;;;;11.60;8.00;;;23.90;40.30;;;;;;220193;1267;22585;-56
2022/03/02 13:40:33;;;;;;;11.50;8.10;;;23.90;40.40;;;;;;220284;1267;25530;-56
2022/03/02 13:46:07;;;;;;;11.90;7.90;;;23.80;40.80;;;;;;220235;1267;22534;-57
2022/03/02 13:51:12;;;;;;;11.80;8.10;;;23.80;40.50;;;;;;220442;1267;23018;-57
2022/03/02 13:56:17;;;;;;;12.40;8.20;;;23.80;40.50;;;;;;220015;1267;22611;-54
2022/03/02 14:01:28;;;;;;;11.90;7.70;;;23.80;40.90;;;;;;220203;1267;22538;-57
2022/03/02 14:06:38;;;;;;;13.60;8.40;;;23.70;40.60;;;;;;220341;1267;22945;-58
2022/03/02 14:11:48;;;;;;;11.50;7.90;;;23.70;40.80;;;;;;220542;1266;22623;-57
2022/03/02 14:16:56;;;;;;;11.70;7.70;;;23.60;41.00;;;;;;220491;1267;22558;-58
2022/03/02 14:22:06;;;;;;;10.50;7.30;;;23.60;40.60;;;;;;220738;1267;24440;-56
2022/03/02 14:27:20;;;;;;;10.10;7.30;;;23.60;40.70;;;;;;220618;1267;22569;-57
2022/03/02 14:32:30;;;;;;;9.40;6.90;;;23.60;40.80;;;;;;220372;1267;24268;-53
2022/03/02 14:37:41;;;;;;;10.00;7.20;;;23.50;40.60;;;;;;220537;1267;26531;-56
2022/03/02 14:42:58;;;;;;;10.80;7.20;;;23.50;40.00;;;;;;220577;1267;22578;-55
2022/03/02 14:48:10;;;;;;;10.20;6.70;;;23.40;39.80;;;;;;220296;1267;25545;-54
2022/03/02 14:53:14;;;;;;;11.00;7.30;;;23.30;39.80;;;;;;220087;1267;22568;-55
2022/03/02 14:58:22;;;;;;;13.20;7.20;;;23.30;40.80;;;;;;220439;1265;22733;-54
2022/03/02 15:03:29;;;;;;;12.40;7.20;;;23.20;40.80;;;;;;220505;1264;22605;-55
2022/03/02 15:08:40;;;;;;;10.80;6.60;;;23.20;41.20;;;;;;220509;1264;22554;-55
2022/03/02 15:19:36;;;;;;;11.40;7.00;;;23.10;40.70;;;;;;220757;1267;25924;-58
2022/03/02 15:24:52;;;;;;;10.10;6.60;;;23.00;40.70;;;;;;220557;1267;24270;-54
2022/03/02 15:30:14;;;;;;;10.20;6.80;;;23.00;40.70;;;;;;220076;1267;24424;-54
2022/03/02 15:35:21;;;;;;;11.00;6.80;;;23.00;40.70;;;;;;220398;1267;25250;-55
2022/03/02 15:40:32;;;;;;;12.70;6.80;;;22.90;41.20;;;;;;220290;1267;24274;-52
2022/03/02 15:45:37;;;;;;;10.30;6.70;;;22.90;40.60;;;;;;220428;1267;22547;-54
2022/03/02 15:50:47;;;;;;;12.30;7.10;;;22.90;40.60;;;;;;219948;1265;24231;-55
2022/03/02 15:56:06;;;;;;;18.10;7.20;;;22.80;41.20;;;;;;220237;1267;23568;-54
2022/03/02 16:01:26;;;;;;;20.20;6.80;;;22.80;41.00;;;;;;219844;1267;24222;-56
2022/03/02 16:06:57;;;;;;;12.40;6.20;;;22.70;41.60;;;;;;220870;1267;22495;-54
2022/03/02 16:12:01;;;;;;;14.80;6.80;;;22.80;43.30;;;;;;228015;1266;22450;-52
2022/03/02 16:17:09;;;;;;;16.70;6.30;;;22.80;46.40;;;;;;227986;1266;22655;-55
2022/03/02 16:22:22;;;;;;;13.80;7.20;;;22.80;48.30;;;;;;227847;1267;23368;-54
2022/03/02 16:27:26;;;;;;;13.60;6.70;;;22.80;51.00;;;;;;228025;1267;22338;-53
2022/03/02 16:32:30;;;;;;;13.00;7.30;;;22.80;52.60;;;;;;223213;1267;24425;-52
2022/03/02 16:37:37;;;;;;;20.10;7.70;;;22.80;52.60;;;;;;220461;1267;24243;-55
2022/03/02 16:42:42;;;;;;;14.60;7.30;;;22.80;52.10;;;;;;219849;1267;25245;-51
2022/03/02 16:47:49;;;;;;;18.30;7.40;;;22.80;51.60;;;;;;219942;1267;23053;-52
2022/03/02 16:52:54;;;;;;;12.60;7.40;;;22.70;50.60;;;;;;220252;1267;25385;-51
2022/03/02 16:58:23;;;;;;;20.60;7.90;;;22.70;50.70;;;;;;220258;1266;27301;-55
2022/03/02 17:03:26;;;;;;;15.60;7.30;;;22.60;50.30;;;;;;220168;1267;22548;-54
2022/03/02 17:08:30;;;;;;;18.70;7.40;;;22.50;50.30;;;;;;219996;1267;22605;-52
2022/03/02 17:13:34;;;;;;;24.90;8.00;;;22.40;49.60;;;;;;219631;1266;22722;-57
2022/03/02 17:18:39;;;;;;;18.50;7.80;;;22.50;49.30;;;;;;220167;1266;23198;-56
2022/03/02 17:23:44;;;;;;;16.50;8.40;;;22.40;48.60;;;;;;219849;1267;27311;-58
2022/03/02 17:28:48;;;;;;;29.40;11.40;;;22.40;47.70;;;;;;220103;1266;22569;-56
2022/03/02 17:33:51;;;;;;;91.90;34.00;;;22.30;46.70;;;;;;219847;1267;22535;-59
2022/03/02 17:38:59;;;;;;;78.50;28.40;;;22.30;46.60;;;;;;219940;1267;25260;-58
2022/03/02 17:44:04;;;;;;;68.20;25.40;;;22.30;46.40;;;;;;220467;1267;22528;-56
2022/03/02 17:49:08;;;;;;;62.20;23.80;;;22.30;46.10;;;;;;219951;1267;25317;-55
2022/03/02 17:54:16;;;;;;;59.20;23.40;;;22.20;46.40;;;;;;220324;1267;24151;-55
2022/03/02 17:59:19;;;;;;;60.20;24.30;;;22.30;46.80;;;;;;219888;1267;22535;-56
2022/03/02 18:04:23;;;;;;;59.80;25.20;;;22.60;46.00;;;;;;220133;1267;24262;-55
2022/03/02 18:09:27;;;;;;;49.40;22.30;;;22.80;43.80;;;;;;220348;1264;25252;-55
2022/03/02 18:14:31;;;;;;;43.00;19.30;;;23.00;43.50;;;;;;220204;1264;24222;-58
2022/03/02 18:19:36;;;;;;;44.10;21.60;;;23.20;43.10;;;;;;220195;1267;24437;-56
2022/03/02 18:24:44;;;;;;;55.20;22.30;;;23.40;42.70;;;;;;219960;1265;22693;-56
2022/03/02 18:29:48;;;;;;;48.60;23.70;;;23.50;42.60;;;;;;220210;1264;22541;-57
2022/03/02 18:34:57;;;;;;;53.80;22.20;;;23.60;42.20;;;;;;220040;1267;22770;-56
2022/03/02 18:40:03;;;;;;;45.30;21.80;;;23.60;42.00;;;;;;220364;1267;24244;-57
2022/03/02 18:45:10;;;;;;;48.50;21.30;;;23.70;42.10;;;;;;220395;1267;24208;-57
2022/03/02 18:50:18;;;;;;;;;;;23.80;41.70;;;;;;220203;1267;25329;-56
2022/03/02 18:55:25;;;;;;;42.60;22.10;;;23.80;41.60;;;;;;220606;1267;24350;-57
2022/03/02 19:00:38;;;;;;;55.20;21.90;;;23.80;41.50;;;;;;220087;1265;22596;-58
2022/03/02 19:05:54;;;;;;;45.80;23.80;;;23.90;42.00;;;;;;220521;1267;24377;-55
2022/03/02 19:11:07;;;;;;;49.00;22.90;;;24.00;40.60;;;;;;220230;1267;24498;-54
2022/03/02 19:16:26;;;;;;;52.80;23.70;;;24.00;41.00;;;;;;219787;1264;24428;-54
2022/03/02 19:21:35;;;;;;;41.20;23.60;;;24.00;40.30;;;;;;219920;1267;22535;-53
2022/03/02 19:26:42;;;;;;;40.90;22.60;;;24.10;40.20;;;;;;220452;1267;25556;-56
2022/03/02 19:31:54;;;;;;;44.80;21.40;;;24.10;40.00;;;;;;220025;1267;22551;-54
2022/03/02 19:37:14;;;;;;;42.10;21.80;;;24.10;40.30;;;;;;219864;1265;25385;-56
2022/03/02 19:42:26;;;;;;;37.00;21.00;;;24.00;40.20;;;;;;220035;1267;24389;-54
2022/03/02 19:48:11;;;;;;;39.00;20.40;;;23.80;40.10;;;;;;220031;1265;25506;-53
2022/03/02 19:53:25;;;;;;;38.80;20.70;;;23.50;40.50;;;;;;219887;1265;22548;-52
2022/03/02 19:58:33;;;;;;;42.70;21.10;;;23.40;41.10;;;;;;222392;1265;22614;-56
2022/03/02 20:03:39;;;;;;;36.80;19.70;;;23.30;41.20;;;;;;220411;1265;22619;-53
2022/03/02 20:08:46;;;;;;;37.70;21.30;;;23.20;41.30;;;;;;220366;1267;22550;-54
2022/03/02 20:13:49;;;;;;;37.20;19.40;;;23.00;41.40;;;;;;220356;1264;25237;-51
2022/03/02 20:18:54;;;;;;;35.70;19.80;;;22.90;41.30;;;;;;220445;1267;22528;-52
2022/03/02 20:23:57;;;;;;;35.60;19.60;;;23.00;41.70;;;;;;220388;1267;25321;-53
2022/03/02 20:29:04;;;;;;;35.00;19.20;;;22.90;41.50;;;;;;220394;1267;25325;-54
2022/03/02 20:34:10;;;;;;;37.20;21.00;;;22.90;42.10;;;;;;220452;1267;24755;-54
2022/03/02 20:39:14;;;;;;;29.10;18.20;;;22.80;41.80;;;;;;220027;1264;22532;-55
2022/03/02 20:44:19;;;;;;;35.20;18.60;;;22.80;42.10;;;;;;220033;1264;22560;-53
2022/03/02 20:49:23;;;;;;;39.10;20.40;;;22.70;42.40;;;;;;220092;1266;22684;-57
2022/03/02 20:54:27;;;;;;;32.50;18.50;;;22.50;42.70;;;;;;220111;1267;24230;-55
2022/03/02 20:59:31;;;;;;;32.40;18.70;;;22.50;42.80;;;;;;220299;1267;22547;-55
2022/03/02 21:04:36;;;;;;;34.40;19.80;;;22.40;43.00;;;;;;220146;1264;22553;-55
2022/03/02 21:09:39;;;;;;;29.60;18.00;;;22.30;43.00;;;;;;220310;1267;22527;-54
2022/03/02 21:14:43;;;;;;;32.70;17.40;;;22.30;43.40;;;;;;220016;1267;24326;-54
2022/03/02 21:19:49;;;;;;;28.50;17.00;;;22.30;43.30;;;;;;219962;1267;25417;-54
2022/03/02 21:24:55;;;;;;;28.10;17.20;;;22.80;43.00;;;;;;220190;1265;22772;-53
2022/03/02 21:30:06;;;;;;;32.60;18.20;;;23.20;42.10;;;;;;220050;1267;234670;-56
2022/03/02 21:35:38;;;;;;;33.40;18.40;;;23.50;41.30;;;;;;220376;1267;22535;-57
2022/03/02 21:40:53;;;;;;;29.50;17.80;;;23.70;41.00;;;;;;220639;1264;23862;-56
2022/03/02 21:46:19;;;;;;;38.70;20.20;;;23.80;40.70;;;;;;220468;1267;25794;-54
2022/03/02 21:51:30;;;;;;;35.70;19.80;;;23.90;40.40;;;;;;220302;1265;22688;-53
2022/03/02 21:56:49;;;;;;;29.10;18.10;;;24.10;40.10;;;;;;220433;1265;25569;-56
2022/03/02 22:01:59;;;;;;;33.40;18.10;;;24.20;40.10;;;;;;220661;1267;25506;-54
2022/03/02 22:07:03;;;;;;;31.30;18.10;;;24.20;40.10;;;;;;220397;1267;22600;-55
2022/03/02 22:12:18;;;;;;;29.20;18.60;;;24.30;39.90;;;;;;220523;1267;24498;-56
2022/03/02 22:17:23;;;;;;;33.50;19.20;;;24.50;39.80;;;;;;220136;1267;22549;-55
2022/03/02 22:22:33;;;;;;;29.50;19.10;;;24.40;39.90;;;;;;219923;1267;25615;-53
2022/03/02 22:27:38;;;;;;;28.70;18.30;;;24.50;39.80;;;;;;220222;1265;22898;-55
2022/03/02 22:32:44;;;;;;;30.90;19.90;;;24.50;40.10;;;;;;220712;1267;22564;-54
2022/03/02 22:37:48;;;;;;;33.10;17.70;;;24.30;40.10;;;;;;220650;1267;25329;-54
2022/03/02 22:42:52;;;;;;;30.00;19.00;;;24.30;40.80;;;;;;220436;1267;24290;-55
2022/03/02 22:47:56;;;;;;;30.20;18.40;;;24.00;41.10;;;;;;220185;1267;25426;-53
2022/03/02 22:53:00;;;;;;;36.90;20.50;;;23.90;41.60;;;;;;219899;1267;22540;-56
2022/03/02 22:58:03;;;;;;;43.70;21.80;;;23.70;41.90;;;;;;220133;1267;25306;-55
2022/03/02 23:03:12;;;;;;;34.80;20.60;;;23.60;42.40;;;;;;220590;1267;22793;-52
2022/03/02 23:19:07;;;;;;;33.30;20.20;;;23.10;43.60;;;;;;220297;1265;22541;-55
2022/03/02 23:24:11;;;;;;;33.40;21.00;;;23.00;43.80;;;;;;220135;1265;22538;-55
2022/03/02 23:29:15;;;;;;;36.90;21.40;;;22.90;43.90;;;;;;220119;1267;22614;-56
2022/03/02 23:34:19;;;;;;;36.90;22.10;;;22.80;44.00;;;;;;219990;1265;22743;-54
2022/03/02 23:39:23;;;;;;;36.20;20.70;;;22.80;44.10;;;;;;220187;1266;22535;-53
2022/03/02 23:44:26;;;;;;;32.20;21.20;;;22.70;44.50;;;;;;219927;1265;22573;-54
2022/03/02 23:49:31;;;;;;;31.40;20.90;;;22.70;44.20;;;;;;220049;1267;22535;-53
2022/03/02 23:54:38;;;;;;;32.60;19.80;;;22.60;44.20;;;;;;220001;1267;22535;-55
2022/03/02 23:59:42;;;;;;;33.90;20.10;;;22.50;44.30;;;;;;220199;1267;22538;-54
